Time,TemperatureF,DewpointF,PressureIn,WindDirection,WindDirectionDegrees,WindSpeedMPH,WindSpeedGustMPH,Humidity,HourlyPrecipIn,Conditions,Clouds,dailyrainin,SoftwareType,DateUTC
2013-05-18 00:01:00,63.7,58.4,29.88,ESE,113,2.0,2.5,83,0.00,,,0.00,WUHU216HW,2013-05-18 05:01:00,
2013-05-18 00:06:00,63.5,58.2,29.88,East,90,2.0,2.5,83,0.00,,,0.00,WUHU216HW,2013-05-18 05:06:00,
2013-05-18 00:11:00,63.4,58.4,29.88,East,90,2.5,2.5,84,0.00,,,0.00,WUHU216HW,2013-05-18 05:11:00,
2013-05-18 00:16:00,63.2,58.2,29.88,ESE,113,2.0,2.7,84,0.00,,,0.00,WUHU216HW,2013-05-18 05:16:00,
2013-05-18 00:21:00,63.0,58.1,29.88,ESE,113,1.3,2.7,84,0.00,,,0.00,WUHU216HW,2013-05-18 05:21:00,
2013-05-18 00:26:00,63.0,58.1,29.88,ESE,113,0.4,2.0,84,0.00,,,0.00,WUHU216HW,2013-05-18 05:26:00,
2013-05-18 00:31:00,62.8,57.9,29.88,ESE,113,1.1,1.6,84,0.00,,,0.00,WUHU216HW,2013-05-18 05:31:00,
2013-05-18 00:36:00,62.6,58.1,29.88,ESE,113,0.4,1.8,85,0.00,,,0.00,WUHU216HW,2013-05-18 05:36:00,
2013-05-18 00:41:00,62.6,58.1,29.88,ESE,113,0.2,1.8,85,0.00,,,0.00,WUHU216HW,2013-05-18 05:41:00,
2013-05-18 00:46:00,62.6,58.4,29.88,ESE,113,0.9,1.1,86,0.00,,,0.00,WUHU216HW,2013-05-18 05:46:00,
2013-05-18 00:51:00,63.0,58.8,29.88,SE,135,0.4,1.1,86,0.00,,,0.00,WUHU216HW,2013-05-18 05:51:00,
2013-05-18 00:56:00,63.4,59.1,29.88,SE,135,0.0,1.8,86,0.00,,,0.00,WUHU216HW,2013-05-18 05:56:00,
2013-05-18 01:01:00,63.7,59.1,29.87,ESE,113,0.9,1.8,85,0.00,,,0.00,WUHU216HW,2013-05-18 06:01:00,
2013-05-18 01:06:00,63.7,59.1,29.88,ESE,113,1.6,1.6,85,0.00,,,0.00,WUHU216HW,2013-05-18 06:06:00,
2013-05-18 01:11:00,63.9,59.3,29.88,ESE,113,0.9,2.2,85,0.00,,,0.00,WUHU216HW,2013-05-18 06:11:00,
2013-05-18 01:16:00,63.7,59.1,29.88,SE,135,1.8,2.2,85,0.00,,,0.00,WUHU216HW,2013-05-18 06:16:00,
2013-05-18 01:21:00,63.2,58.6,29.87,ESE,113,0.2,1.8,85,0.00,,,0.00,WUHU216HW,2013-05-18 06:21:00,
2013-05-18 01:26:00,63.0,58.4,29.87,East,90,0.2,1.8,85,0.00,,,0.00,WUHU216HW,2013-05-18 06:26:00,
2013-05-18 01:31:00,62.6,58.1,29.87,SSE,158,2.0,2.0,85,0.00,,,0.00,WUHU216HW,2013-05-18 06:31:00,
2013-05-18 01:36:00,62.6,58.1,29.87,ESE,113,0.7,2.0,85,0.00,,,0.00,WUHU216HW,2013-05-18 06:36:00,
2013-05-18 01:41:00,62.5,58.2,29.87,ESE,113,0.4,2.0,86,0.00,,,0.00,WUHU216HW,2013-05-18 06:41:00,
2013-05-18 01:46:00,62.3,58.1,29.86,South,180,2.5,2.9,86,0.00,,,0.00,WUHU216HW,2013-05-18 06:46:00,
2013-05-18 01:51:00,62.3,58.1,29.86,South,180,2.7,2.9,86,0.00,,,0.00,WUHU216HW,2013-05-18 06:51:00,
2013-05-18 01:56:00,62.3,58.4,29.86,SSE,158,2.0,3.1,87,0.00,,,0.00,WUHU216HW,2013-05-18 06:56:00,
2013-05-18 02:01:00,62.3,58.4,29.85,SE,135,2.0,3.1,87,0.00,,,0.00,WUHU216HW,2013-05-18 07:01:00,
2013-05-18 02:06:00,62.3,58.4,29.85,SSE,158,1.1,2.7,87,0.00,,,0.00,WUHU216HW,2013-05-18 07:06:00,
2013-05-18 02:11:00,62.1,58.2,29.86,SSW,203,1.8,2.7,87,0.00,,,0.00,WUHU216HW,2013-05-18 07:11:00,
2013-05-18 02:16:00,61.9,58.1,29.86,SE,135,1.6,2.2,87,0.00,,,0.00,WUHU216HW,2013-05-18 07:16:00,
2013-05-18 02:21:00,61.9,58.1,29.86,SE,135,0.7,2.2,87,0.00,,,0.00,WUHU216HW,2013-05-18 07:21:00,
2013-05-18 02:26:00,61.7,57.9,29.85,SSE,158,1.3,2.2,87,0.00,,,0.00,WUHU216HW,2013-05-18 07:26:00,
2013-05-18 02:31:00,61.6,57.7,29.85,SE,135,1.6,2.2,87,0.00,,,0.00,WUHU216HW,2013-05-18 07:31:00,
2013-05-18 02:36:00,61.7,58.2,29.85,SE,135,0.0,2.0,88,0.00,,,0.00,WUHU216HW,2013-05-18 07:36:00,
2013-05-18 02:41:00,61.6,57.7,29.85,SE,135,0.4,2.0,87,0.00,,,0.00,WUHU216HW,2013-05-18 07:41:00,
2013-05-18 02:46:00,61.6,57.7,29.85,East,90,1.6,1.6,87,0.00,,,0.00,WUHU216HW,2013-05-18 07:46:00,
2013-05-18 02:51:00,61.6,58.1,29.85,ESE,113,1.1,1.8,88,0.00,,,0.00,WUHU216HW,2013-05-18 07:51:00,
2013-05-18 02:56:00,61.2,57.3,29.85,ESE,113,1.3,1.8,87,0.00,,,0.00,WUHU216HW,2013-05-18 07:56:00,
2013-05-18 03:01:00,60.8,57.0,29.85,ESE,113,0.7,1.3,87,0.00,,,0.00,WUHU216HW,2013-05-18 08:01:00,
2013-05-18 03:06:00,61.0,57.5,29.85,East,90,1.1,1.3,88,0.00,,,0.00,WUHU216HW,2013-05-18 08:06:00,
2013-05-18 03:11:00,61.0,57.8,29.85,ESE,113,0.4,1.3,89,0.00,,,0.00,WUHU216HW,2013-05-18 08:11:00,
2013-05-18 03:16:00,60.8,57.3,29.85,ESE,113,0.0,1.3,88,0.00,,,0.00,WUHU216HW,2013-05-18 08:16:00,
2013-05-18 03:21:00,60.7,57.2,29.85,ESE,113,0.0,0.4,88,0.00,,,0.00,WUHU216HW,2013-05-18 08:21:00,
2013-05-18 03:26:00,60.5,57.2,29.85,East,90,1.1,1.1,89,0.00,,,0.00,WUHU216HW,2013-05-18 08:26:00,
2013-05-18 03:31:00,60.5,57.2,29.85,ESE,113,2.0,2.0,89,0.00,,,0.00,WUHU216HW,2013-05-18 08:31:00,
2013-05-18 03:36:00,60.8,57.6,29.85,ESE,113,1.1,2.0,89,0.00,,,0.00,WUHU216HW,2013-05-18 08:36:00,
2013-05-18 03:41:00,60.5,57.2,29.85,ESE,113,0.0,2.0,89,0.00,,,0.00,WUHU216HW,2013-05-18 08:41:00,
2013-05-18 03:46:00,60.3,57.1,29.85,ESE,113,0.0,1.1,89,0.00,,,0.00,WUHU216HW,2013-05-18 08:46:00,
2013-05-18 03:51:00,60.1,56.9,29.85,ESE,113,0.0,0.4,89,0.00,,,0.00,WUHU216HW,2013-05-18 08:51:00,
2013-05-18 03:56:00,59.9,56.7,29.85,SSE,158,0.9,0.9,89,0.00,,,0.00,WUHU216HW,2013-05-18 08:56:00,
2013-05-18 04:01:00,59.8,56.5,29.85,SE,135,1.1,1.3,89,0.00,,,0.00,WUHU216HW,2013-05-18 09:01:00,
2013-05-18 04:06:00,59.6,56.3,29.85,ESE,113,0.2,1.3,89,0.00,,,0.00,WUHU216HW,2013-05-18 09:06:00,
2013-05-18 04:11:00,59.6,56.7,29.85,SE,135,0.7,1.1,90,0.00,,,0.00,WUHU216HW,2013-05-18 09:11:00,
2013-05-18 04:16:00,59.8,56.9,29.85,ESE,113,1.1,1.1,90,0.00,,,0.00,WUHU216HW,2013-05-18 09:16:00,
2013-05-18 04:21:00,59.9,57.1,29.85,SE,135,1.1,1.8,90,0.00,,,0.00,WUHU216HW,2013-05-18 09:21:00,
2013-05-18 04:26:00,60.1,57.2,29.84,SE,135,0.0,1.8,90,0.00,,,0.00,WUHU216HW,2013-05-18 09:26:00,
2013-05-18 04:31:00,60.1,57.2,29.84,SSE,158,1.1,2.0,90,0.00,,,0.00,WUHU216HW,2013-05-18 09:31:00,
2013-05-18 04:36:00,60.1,57.2,29.84,SSE,158,2.2,2.2,90,0.00,,,0.00,WUHU216HW,2013-05-18 09:36:00,
2013-05-18 04:41:00,60.1,57.2,29.84,SE,135,1.1,2.2,90,0.00,,,0.00,WUHU216HW,2013-05-18 09:41:00,
2013-05-18 04:46:00,60.1,57.2,29.84,SSE,158,0.9,2.2,90,0.00,,,0.00,WUHU216HW,2013-05-18 09:46:00,
2013-05-18 04:51:00,60.5,57.6,29.84,ESE,113,0.2,1.8,90,0.00,,,0.00,WUHU216HW,2013-05-18 09:51:00,
2013-05-18 04:56:00,61.0,58.1,29.84,SE,135,1.8,1.8,90,0.00,,,0.00,WUHU216HW,2013-05-18 09:56:00,
2013-05-18 05:01:00,61.4,58.5,29.84,SSE,158,0.9,2.9,90,0.00,,,0.00,WUHU216HW,2013-05-18 10:01:00,
2013-05-18 05:06:00,61.9,59.0,29.84,ESE,113,2.0,3.8,90,0.00,,,0.00,WUHU216HW,2013-05-18 10:06:00,
2013-05-18 05:11:00,62.5,59.6,29.84,SE,135,1.6,3.8,90,0.00,,,0.00,WUHU216HW,2013-05-18 10:11:00,
2013-05-18 05:16:00,62.6,59.8,29.83,SSE,158,1.8,2.5,90,0.00,,,0.00,WUHU216HW,2013-05-18 10:16:00,
2013-05-18 05:21:00,63.2,60.3,29.83,East,90,2.5,2.9,90,0.00,,,0.00,WUHU216HW,2013-05-18 10:21:00,
2013-05-18 05:26:00,63.4,60.5,29.84,SE,135,0.9,2.9,90,0.00,,,0.00,WUHU216HW,2013-05-18 10:26:00,
2013-05-18 05:31:00,63.7,60.5,29.84,South,180,1.8,2.5,89,0.00,,,0.00,WUHU216HW,2013-05-18 10:31:00,
2013-05-18 05:36:00,63.9,60.7,29.84,SSE,158,1.8,3.4,89,0.00,,,0.00,WUHU216HW,2013-05-18 10:36:00,
2013-05-18 05:41:00,63.9,60.7,29.83,SE,135,1.6,3.4,89,0.00,,,0.00,WUHU216HW,2013-05-18 10:41:00,
2013-05-18 05:46:00,63.5,60.3,29.84,South,180,1.6,1.8,89,0.00,,,0.00,WUHU216HW,2013-05-18 10:46:00,
2013-05-18 05:51:00,63.4,60.1,29.84,SSE,158,3.1,3.1,89,0.00,,,0.00,WUHU216HW,2013-05-18 10:51:00,
2013-05-18 05:56:00,63.4,60.1,29.84,SSE,158,2.7,3.1,89,0.00,,,0.00,WUHU216HW,2013-05-18 10:56:00,
2013-05-18 06:01:00,63.2,59.9,29.84,ESE,113,0.7,3.1,89,0.00,,,0.00,WUHU216HW,2013-05-18 11:01:00,
2013-05-18 06:06:00,63.2,59.9,29.84,SSE,158,0.4,2.7,89,0.00,,,0.00,WUHU216HW,2013-05-18 11:06:00,
2013-05-18 06:11:00,63.2,59.9,29.85,SE,135,0.4,2.0,89,0.00,,,0.00,WUHU216HW,2013-05-18 11:11:00,
2013-05-18 06:16:00,63.4,60.1,29.85,SSE,158,1.1,2.0,89,0.00,,,0.00,WUHU216HW,2013-05-18 11:16:00,
2013-05-18 06:21:00,63.7,60.5,29.85,SSE,158,1.1,1.1,89,0.00,,,0.00,WUHU216HW,2013-05-18 11:21:00,
2013-05-18 06:26:00,63.9,60.7,29.85,SE,135,1.3,1.3,89,0.00,,,0.00,WUHU216HW,2013-05-18 11:26:00,
2013-05-18 06:31:00,64.3,61.0,29.85,SSE,158,3.4,3.4,89,0.00,,,0.00,WUHU216HW,2013-05-18 11:31:00,
2013-05-18 06:36:00,64.4,60.8,29.85,ESE,113,1.3,3.4,88,0.00,,,0.00,WUHU216HW,2013-05-18 11:36:00,
2013-05-18 06:41:00,64.4,60.8,29.85,SSE,158,2.2,3.4,88,0.00,,,0.00,WUHU216HW,2013-05-18 11:41:00,
2013-05-18 06:46:00,64.4,60.8,29.85,SE,135,1.8,2.2,88,0.00,,,0.00,WUHU216HW,2013-05-18 11:46:00,
2013-05-18 06:51:00,64.8,61.2,29.85,SE,135,1.1,2.2,88,0.00,,,0.00,WUHU216HW,2013-05-18 11:51:00,
2013-05-18 06:56:00,64.8,61.2,29.85,SSE,158,1.1,2.2,88,0.00,,,0.00,WUHU216HW,2013-05-18 11:56:00,
2013-05-18 07:01:00,65.0,61.0,29.86,SE,135,2.2,2.2,87,0.00,,,0.00,WUHU216HW,2013-05-18 12:01:00,
2013-05-18 07:06:00,65.2,61.6,29.86,South,180,2.7,3.4,88,0.00,,,0.00,WUHU216HW,2013-05-18 12:06:00,
2013-05-18 07:11:00,65.3,61.8,29.85,SSE,158,0.7,3.4,88,0.00,,,0.00,WUHU216HW,2013-05-18 12:11:00,
2013-05-18 07:16:00,65.5,61.8,29.85,ESE,113,4.3,4.3,88,0.00,,,0.00,WUHU216HW,2013-05-18 12:16:00,
2013-05-18 07:21:00,65.9,62.2,29.85,ESE,113,6.3,6.3,88,0.00,,,0.00,WUHU216HW,2013-05-18 12:21:00,
2013-05-18 07:26:00,66.6,62.6,29.85,SSE,158,1.6,6.3,87,0.00,,,0.00,WUHU216HW,2013-05-18 12:26:00,
2013-05-18 07:31:00,68.6,63.5,29.85,South,180,2.9,6.3,84,0.00,,,0.00,WUHU216HW,2013-05-18 12:31:00,
2013-05-18 07:36:00,70.0,63.9,29.85,SSE,158,3.1,4.0,81,0.00,,,0.00,WUHU216HW,2013-05-18 12:36:00,
2013-05-18 07:41:00,70.6,64.1,29.84,SSE,158,3.1,6.7,80,0.00,,,0.00,WUHU216HW,2013-05-18 12:41:00,
2013-05-18 07:46:00,71.3,64.5,29.84,ESE,113,1.8,6.7,79,0.00,,,0.00,WUHU216HW,2013-05-18 12:46:00,
2013-05-18 07:51:00,71.6,64.0,29.84,East,90,4.7,4.7,77,0.00,,,0.00,WUHU216HW,2013-05-18 12:51:00,
2013-05-18 07:56:00,71.5,63.8,29.83,South,180,1.8,4.7,77,0.00,,,0.00,WUHU216HW,2013-05-18 12:56:00,
2013-05-18 08:01:00,72.0,64.0,29.83,SE,135,3.4,4.5,76,0.00,,,0.00,WUHU216HW,2013-05-18 13:01:00,
2013-05-18 08:06:00,72.5,65.4,29.83,South,180,2.5,4.3,78,0.00,,,0.00,WUHU216HW,2013-05-18 13:06:00,
2013-05-18 08:11:00,73.1,65.1,29.83,East,90,2.7,6.3,76,0.00,,,0.00,WUHU216HW,2013-05-18 13:11:00,
2013-05-18 08:15:00,73.4,65.1,29.82,ESE,113,6.5,6.5,75,0.00,,,0.00,WUHU216HW,2013-05-18 13:15:00,
2013-05-18 08:20:00,73.6,65.3,29.82,SE,135,2.5,8.9,75,0.00,,,0.00,WUHU216HW,2013-05-18 13:20:00,
2013-05-18 08:25:00,74.0,65.2,29.82,East,90,3.4,8.9,74,0.00,,,0.00,WUHU216HW,2013-05-18 13:25:00,
2013-05-18 08:30:00,74.2,65.3,29.82,ESE,113,6.9,6.9,74,0.00,,,0.00,WUHU216HW,2013-05-18 13:30:00,
2013-05-18 08:35:00,73.6,64.9,29.82,South,180,7.2,7.2,74,0.00,,,0.00,WUHU216HW,2013-05-18 13:35:00,
2013-05-18 08:40:00,73.3,65.3,29.82,ESE,113,3.6,7.2,76,0.00,,,0.00,WUHU216HW,2013-05-18 13:40:00,
2013-05-18 08:45:00,73.4,65.8,29.82,ESE,113,5.1,7.2,77,0.00,,,0.00,WUHU216HW,2013-05-18 13:45:00,
2013-05-18 08:50:00,73.8,65.4,29.82,SSE,158,5.4,6.0,75,0.00,,,0.00,WUHU216HW,2013-05-18 13:50:00,
2013-05-18 08:55:00,74.5,66.1,29.82,SE,135,4.3,5.6,75,0.00,,,0.00,WUHU216HW,2013-05-18 13:55:00,
2013-05-18 09:00:00,76.0,66.7,29.82,SE,135,6.3,7.4,73,0.00,,,0.00,WUHU216HW,2013-05-18 14:00:00,
2013-05-18 09:05:00,76.7,67.4,29.82,South,180,6.5,7.4,73,0.00,,,0.00,WUHU216HW,2013-05-18 14:05:00,
2013-05-18 09:10:00,77.6,67.5,29.82,SE,135,2.5,6.9,71,0.00,,,0.00,WUHU216HW,2013-05-18 14:10:00,
2013-05-18 09:15:00,77.8,67.2,29.82,ESE,113,4.7,6.9,70,0.00,,,0.00,WUHU216HW,2013-05-18 14:15:00,
2013-05-18 09:20:00,77.8,67.2,29.82,SE,135,4.9,6.9,70,0.00,,,0.00,WUHU216HW,2013-05-18 14:20:00,
2013-05-18 09:25:00,78.5,67.1,29.82,SSE,158,6.0,6.9,68,0.00,,,0.00,WUHU216HW,2013-05-18 14:25:00,
2013-05-18 09:30:00,78.3,67.3,29.82,SSE,158,5.4,9.2,69,0.00,,,0.00,WUHU216HW,2013-05-18 14:30:00,
2013-05-18 09:35:00,78.3,67.3,29.82,South,180,3.4,9.2,69,0.00,,,0.00,WUHU216HW,2013-05-18 14:35:00,
2013-05-18 09:40:00,78.3,67.8,29.82,SE,135,3.4,6.3,70,0.00,,,0.00,WUHU216HW,2013-05-18 14:40:00,
2013-05-18 09:45:00,78.8,68.6,29.82,SSE,158,3.1,6.3,71,0.00,,,0.00,WUHU216HW,2013-05-18 14:45:00,
2013-05-18 09:50:00,79.2,68.1,29.82,ESE,113,2.7,4.5,69,0.00,,,0.00,WUHU216HW,2013-05-18 14:50:00,
2013-05-18 09:55:00,79.2,68.1,29.82,ESE,113,3.1,6.3,69,0.00,,,0.00,WUHU216HW,2013-05-18 14:55:00,
2013-05-18 10:00:00,79.6,68.0,29.83,SE,135,8.5,8.5,68,0.00,,,0.00,WUHU216HW,2013-05-18 15:00:00,
2013-05-18 10:05:00,79.9,69.7,29.83,SE,135,3.1,8.5,71,0.00,,,0.00,WUHU216HW,2013-05-18 15:05:00,
2013-05-18 10:10:00,80.6,70.0,29.84,South,180,5.6,8.5,70,0.00,,,0.00,WUHU216HW,2013-05-18 15:10:00,
2013-05-18 10:15:00,79.9,68.4,29.84,SE,135,3.6,10.7,68,0.00,,,0.00,WUHU216HW,2013-05-18 15:15:00,
2013-05-18 10:20:00,78.8,68.6,29.84,SE,135,5.8,10.7,71,0.00,,,0.00,WUHU216HW,2013-05-18 15:20:00,
2013-05-18 10:25:00,79.0,69.2,29.84,East,90,3.6,5.8,72,0.00,,,0.00,WUHU216HW,2013-05-18 15:25:00,
2013-05-18 10:30:00,78.7,68.5,29.83,East,90,3.6,6.3,71,0.00,,,0.00,WUHU216HW,2013-05-18 15:30:00,
2013-05-18 10:35:00,78.8,69.0,29.83,SE,135,4.7,6.3,72,0.00,,,0.00,WUHU216HW,2013-05-18 15:35:00,
2013-05-18 10:40:00,79.4,69.1,29.83,SE,135,4.0,5.6,71,0.00,,,0.00,WUHU216HW,2013-05-18 15:40:00,
2013-05-18 10:45:00,79.2,68.6,29.83,ESE,113,6.9,6.9,70,0.00,,,0.00,WUHU216HW,2013-05-18 15:45:00,
2013-05-18 10:50:00,79.2,69.4,29.83,South,180,7.6,7.6,72,0.00,,,0.00,WUHU216HW,2013-05-18 15:50:00,
2013-05-18 10:55:00,80.1,69.8,29.82,ESE,113,3.6,8.5,71,0.00,,,0.00,WUHU216HW,2013-05-18 15:55:00,
2013-05-18 11:00:00,80.6,70.0,29.83,SE,135,4.3,8.5,70,0.00,,,0.00,WUHU216HW,2013-05-18 16:00:00,
2013-05-18 11:05:00,80.5,69.8,29.82,East,90,4.0,8.5,70,0.00,,,0.00,WUHU216HW,2013-05-18 16:05:00,
2013-05-18 11:10:00,80.8,70.6,29.82,SE,135,3.6,8.5,71,0.00,,,0.00,WUHU216HW,2013-05-18 16:10:00,
2013-05-18 11:15:00,81.4,70.2,29.82,SE,135,2.9,7.4,69,0.00,,,0.00,WUHU216HW,2013-05-18 16:15:00,
2013-05-18 11:20:00,81.5,69.5,29.82,SE,135,6.0,7.6,67,0.00,,,0.00,WUHU216HW,2013-05-18 16:20:00,
2013-05-18 11:25:00,81.0,69.9,29.81,ESE,113,5.6,7.8,69,0.00,,,0.00,WUHU216HW,2013-05-18 16:25:00,
2013-05-18 11:30:00,81.2,70.5,29.81,ESE,113,3.6,7.8,70,0.00,,,0.00,WUHU216HW,2013-05-18 16:30:00,
2013-05-18 11:35:00,81.9,70.8,29.82,SE,135,6.3,7.4,69,0.00,,,0.00,WUHU216HW,2013-05-18 16:35:00,
2013-05-18 11:40:00,82.3,70.1,29.82,SSE,158,7.6,12.8,67,0.00,,,0.00,WUHU216HW,2013-05-18 16:40:00,
2013-05-18 11:45:00,82.4,70.7,29.82,ESE,113,8.1,12.8,68,0.00,,,0.00,WUHU216HW,2013-05-18 16:45:00,
2013-05-18 11:50:00,82.1,69.9,29.82,SE,135,11.0,12.5,67,0.00,,,0.00,WUHU216HW,2013-05-18 16:50:00,
2013-05-18 11:55:00,82.3,71.5,29.82,SE,135,3.6,11.0,70,0.00,,,0.00,WUHU216HW,2013-05-18 16:55:00,
2013-05-18 12:00:00,82.4,71.2,29.81,South,180,5.4,11.0,69,0.00,,,0.00,WUHU216HW,2013-05-18 17:00:00,
2013-05-18 12:05:00,82.8,71.6,29.81,ESE,113,5.8,5.8,69,0.00,,,0.00,WUHU216HW,2013-05-18 17:05:00,
2013-05-18 12:10:00,82.4,71.2,29.81,SSE,158,7.4,9.6,69,0.00,,,0.00,WUHU216HW,2013-05-18 17:10:00,
2013-05-18 12:15:00,81.7,69.7,29.81,SE,135,8.7,9.6,67,0.00,,,0.00,WUHU216HW,2013-05-18 17:15:00,
2013-05-18 12:20:00,80.6,70.0,29.81,SSE,158,3.4,9.4,70,0.00,,,0.00,WUHU216HW,2013-05-18 17:20:00,
2013-05-18 12:25:00,80.3,69.2,29.81,SSE,158,7.6,9.4,69,0.00,,,0.00,WUHU216HW,2013-05-18 17:25:00,
2013-05-18 12:30:00,79.9,69.7,29.81,SE,135,5.4,9.2,71,0.00,,,0.00,WUHU216HW,2013-05-18 17:30:00,
2013-05-18 12:35:00,80.3,70.5,29.82,ESE,113,5.6,7.6,72,0.00,,,0.00,WUHU216HW,2013-05-18 17:35:00,
2013-05-18 12:40:00,80.5,70.2,29.82,SE,135,4.0,6.0,71,0.00,,,0.00,WUHU216HW,2013-05-18 17:40:00,
2013-05-18 12:45:00,81.2,71.3,29.81,ESE,113,5.4,7.6,72,0.00,,,0.00,WUHU216HW,2013-05-18 17:45:00,
2013-05-18 12:50:00,81.5,70.4,29.81,ESE,113,5.1,7.6,69,0.00,,,0.00,WUHU216HW,2013-05-18 17:50:00,
2013-05-18 12:55:00,81.4,70.2,29.81,ESE,113,6.3,6.3,69,0.00,,,0.00,WUHU216HW,2013-05-18 17:55:00,
2013-05-18 13:00:00,81.4,70.7,29.81,SE,135,5.1,6.3,70,0.00,,,0.00,WUHU216HW,2013-05-18 18:00:00,
2013-05-18 13:05:00,81.7,70.6,29.80,SE,135,3.6,6.3,69,0.00,,,0.00,WUHU216HW,2013-05-18 18:05:00,
2013-05-18 13:10:00,81.5,70.8,29.80,SSE,158,7.8,8.9,70,0.00,,,0.00,WUHU216HW,2013-05-18 18:10:00,
2013-05-18 13:15:00,80.8,69.8,29.80,ENE,68,5.4,8.9,69,0.00,,,0.00,WUHU216HW,2013-05-18 18:15:00,
2013-05-18 13:20:00,80.3,70.0,29.80,SSE,158,3.1,7.8,71,0.00,,,0.00,WUHU216HW,2013-05-18 18:20:00,
2013-05-18 13:25:00,79.9,70.1,29.80,SE,135,4.7,6.9,72,0.00,,,0.00,WUHU216HW,2013-05-18 18:25:00,
2013-05-18 13:30:00,80.3,70.5,29.80,SSW,203,2.5,6.9,72,0.00,,,0.00,WUHU216HW,2013-05-18 18:30:00,
2013-05-18 13:35:00,80.8,70.6,29.80,East,90,3.8,5.8,71,0.00,,,0.00,WUHU216HW,2013-05-18 18:35:00,
2013-05-18 13:40:00,80.6,70.4,29.79,South,180,8.3,8.7,71,0.00,,,0.00,WUHU216HW,2013-05-18 18:40:00,
2013-05-18 13:45:00,80.3,70.5,29.80,SSE,158,7.4,8.7,72,0.00,,,0.00,WUHU216HW,2013-05-18 18:45:00,
2013-05-18 13:50:00,79.9,70.1,29.80,SE,135,5.6,8.3,72,0.00,,,0.00,WUHU216HW,2013-05-18 18:50:00,
2013-05-18 13:55:00,80.3,70.8,29.80,SSE,158,6.7,7.4,73,0.00,,,0.00,WUHU216HW,2013-05-18 18:55:00,
2013-05-18 14:00:00,80.8,71.4,29.80,South,180,4.0,6.7,73,0.00,,,0.00,WUHU216HW,2013-05-18 19:00:00,
2013-05-18 14:05:00,80.8,71.0,29.80,SSE,158,6.0,6.7,72,0.00,,,0.00,WUHU216HW,2013-05-18 19:05:00,
2013-05-18 14:10:00,80.8,71.7,29.80,SSW,203,4.0,10.5,74,0.00,,,0.00,WUHU216HW,2013-05-18 19:10:00,
2013-05-18 14:15:00,82.1,73.4,29.79,SE,135,4.3,10.5,75,0.00,,,0.00,WUHU216HW,2013-05-18 19:15:00,
2013-05-18 14:20:00,83.3,72.5,29.79,SSE,158,3.8,6.9,70,0.00,,,0.00,WUHU216HW,2013-05-18 19:20:00,
2013-05-18 14:25:00,83.5,72.3,29.79,South,180,4.0,9.8,69,0.00,,,0.00,WUHU216HW,2013-05-18 19:25:00,
2013-05-18 14:30:00,83.3,72.1,29.78,SE,135,3.4,9.8,69,0.00,,,0.00,WUHU216HW,2013-05-18 19:30:00,
2013-05-18 14:35:00,84.8,72.6,29.77,SSE,158,3.8,5.8,67,0.00,,,0.00,WUHU216HW,2013-05-18 19:35:00,
2013-05-18 14:40:00,84.6,72.9,29.78,SSE,158,6.5,9.6,68,0.00,,,0.00,WUHU216HW,2013-05-18 19:40:00,
2013-05-18 14:45:00,84.1,72.8,29.78,South,180,6.5,9.6,69,0.00,,,0.00,WUHU216HW,2013-05-18 19:45:00,
2013-05-18 14:50:00,83.9,72.2,29.78,South,180,6.7,7.2,68,0.00,,,0.00,WUHU216HW,2013-05-18 19:50:00,
2013-05-18 14:55:00,83.7,73.3,29.78,SE,135,6.0,8.1,71,0.00,,,0.00,WUHU216HW,2013-05-18 19:55:00,
2013-05-18 15:00:00,83.9,72.6,29.78,SE,135,8.9,8.9,69,0.00,,,0.00,WUHU216HW,2013-05-18 20:00:00,
2013-05-18 15:05:00,84.1,73.3,29.77,East,90,7.8,8.9,70,0.00,,,0.00,WUHU216HW,2013-05-18 20:05:00,
2013-05-18 15:10:00,85.0,75.0,29.77,SE,135,3.6,8.9,72,0.00,,,0.00,WUHU216HW,2013-05-18 20:10:00,
2013-05-18 15:15:00,86.0,73.8,29.77,South,180,7.6,10.3,67,0.00,,,0.00,WUHU216HW,2013-05-18 20:15:00,
2013-05-18 15:20:00,86.0,73.8,29.77,SE,135,4.7,10.3,67,0.00,,,0.00,WUHU216HW,2013-05-18 20:20:00,
2013-05-18 15:25:00,85.0,72.8,29.77,SE,135,7.8,10.3,67,0.00,,,0.00,WUHU216HW,2013-05-18 20:25:00,
2013-05-18 15:30:00,84.2,72.5,29.77,ESE,113,6.5,8.7,68,0.00,,,0.00,WUHU216HW,2013-05-18 20:30:00,
2013-05-18 15:35:00,84.2,73.4,29.76,SSE,158,2.7,7.8,70,0.00,,,0.00,WUHU216HW,2013-05-18 20:35:00,
2013-05-18 15:40:00,84.6,72.9,29.76,ESE,113,3.8,6.5,68,0.00,,,0.00,WUHU216HW,2013-05-18 20:40:00,
2013-05-18 15:45:00,84.4,72.7,29.76,SE,135,5.8,6.0,68,0.00,,,0.00,WUHU216HW,2013-05-18 20:45:00,
2013-05-18 15:50:00,84.2,73.4,29.76,SE,135,4.0,5.8,70,0.00,,,0.00,WUHU216HW,2013-05-18 20:50:00,
2013-05-18 15:55:00,85.1,73.9,29.76,SSW,203,6.9,7.4,69,0.00,,,0.00,WUHU216HW,2013-05-18 20:55:00,
2013-05-18 16:00:00,85.1,73.5,29.76,SSE,158,5.4,7.4,68,0.00,,,0.00,WUHU216HW,2013-05-18 21:00:00,
2013-05-18 16:05:00,84.6,72.9,29.75,SE,135,2.2,6.9,68,0.00,,,0.00,WUHU216HW,2013-05-18 21:05:00,
2013-05-18 16:10:00,84.2,73.0,29.75,ESE,113,6.9,6.9,69,0.00,,,0.00,WUHU216HW,2013-05-18 21:10:00,
2013-05-18 16:15:00,83.9,73.4,29.75,ESE,113,2.5,8.9,71,0.00,,,0.00,WUHU216HW,2013-05-18 21:15:00,
2013-05-18 16:20:00,83.9,73.4,29.75,SE,135,5.1,8.9,71,0.00,,,0.00,WUHU216HW,2013-05-18 21:20:00,
2013-05-18 16:25:00,84.2,73.8,29.75,SE,135,3.6,5.8,71,0.00,,,0.00,WUHU216HW,2013-05-18 21:25:00,
2013-05-18 16:30:00,84.6,73.4,29.75,South,180,6.9,6.9,69,0.00,,,0.00,WUHU216HW,2013-05-18 21:30:00,
2013-05-18 16:35:00,84.1,72.8,29.75,ESE,113,6.3,10.3,69,0.00,,,0.00,WUHU216HW,2013-05-18 21:35:00,
2013-05-18 16:40:00,83.7,73.3,29.75,SE,135,3.1,10.3,71,0.00,,,0.00,WUHU216HW,2013-05-18 21:40:00,
2013-05-18 16:45:00,83.9,73.4,29.76,South,180,5.8,10.3,71,0.00,,,0.00,WUHU216HW,2013-05-18 21:45:00,
2013-05-18 16:50:00,83.9,73.4,29.75,SE,135,6.3,10.3,71,0.00,,,0.00,WUHU216HW,2013-05-18 21:50:00,
2013-05-18 16:55:00,83.9,73.9,29.75,SSE,158,4.7,8.1,72,0.00,,,0.00,WUHU216HW,2013-05-18 21:55:00,
2013-05-18 17:00:00,83.9,73.4,29.74,SE,135,7.8,7.8,71,0.00,,,0.00,WUHU216HW,2013-05-18 22:00:00,
2013-05-18 17:05:00,83.7,73.7,29.73,South,180,9.2,9.2,72,0.00,,,0.00,WUHU216HW,2013-05-18 22:05:00,
2013-05-18 17:10:00,83.5,73.5,29.73,SE,135,5.4,9.2,72,0.00,,,0.00,WUHU216HW,2013-05-18 22:10:00,
2013-05-18 17:15:00,83.2,73.2,29.73,SE,135,7.6,9.2,72,0.00,,,0.00,WUHU216HW,2013-05-18 22:15:00,
2013-05-18 17:20:00,83.0,73.5,29.73,ESE,113,7.6,7.6,73,0.00,,,0.00,WUHU216HW,2013-05-18 22:20:00,
2013-05-18 17:25:00,83.3,73.8,29.73,SSE,158,5.4,7.6,73,0.00,,,0.00,WUHU216HW,2013-05-18 22:25:00,
2013-05-18 17:30:00,83.5,73.5,29.72,ESE,113,4.7,7.8,72,0.00,,,0.00,WUHU216HW,2013-05-18 22:30:00,
2013-05-18 17:35:00,83.5,73.5,29.71,SSE,158,5.4,7.8,72,0.00,,,0.00,WUHU216HW,2013-05-18 22:35:00,
2013-05-18 17:40:00,83.0,73.0,29.71,ESE,113,3.4,8.5,72,0.00,,,0.00,WUHU216HW,2013-05-18 22:40:00,
2013-05-18 17:45:00,83.2,73.6,29.72,East,90,6.3,8.5,73,0.00,,,0.00,WUHU216HW,2013-05-18 22:45:00,
2013-05-18 17:50:00,83.2,73.2,29.74,ESE,113,3.6,6.3,72,0.00,,,0.00,WUHU216HW,2013-05-18 22:50:00,
2013-05-18 17:55:00,83.0,73.0,29.73,SE,135,4.9,6.3,72,0.00,,,0.00,WUHU216HW,2013-05-18 22:55:00,
2013-05-18 18:00:00,82.4,72.9,29.72,North,0,3.4,7.6,73,0.00,,,0.00,WUHU216HW,2013-05-18 23:00:00,
2013-05-18 18:05:00,81.9,72.0,29.72,SSE,158,6.9,7.6,72,0.00,,,0.00,WUHU216HW,2013-05-18 23:05:00,
2013-05-18 18:10:00,81.4,72.3,29.73,SE,135,2.9,7.4,74,0.00,,,0.00,WUHU216HW,2013-05-18 23:10:00,
2013-05-18 18:15:00,81.0,71.9,29.72,SE,135,2.7,6.9,74,0.00,,,0.00,WUHU216HW,2013-05-18 23:15:00,
2013-05-18 18:20:00,80.8,71.7,29.72,SSE,158,4.5,6.3,74,0.00,,,0.00,WUHU216HW,2013-05-18 23:20:00,
2013-05-18 18:25:00,80.6,72.0,29.72,South,180,5.8,6.3,75,0.00,,,0.00,WUHU216HW,2013-05-18 23:25:00,
2013-05-18 18:30:00,80.6,72.0,29.71,SSW,203,4.0,5.8,75,0.00,,,0.00,WUHU216HW,2013-05-18 23:30:00,
2013-05-18 18:35:00,80.6,72.0,29.70,SSE,158,9.4,9.4,75,0.00,,,0.00,WUHU216HW,2013-05-18 23:35:00,
2013-05-18 18:40:00,81.4,72.7,29.70,SSE,158,6.7,9.4,75,0.00,,,0.00,WUHU216HW,2013-05-18 23:40:00,
2013-05-18 18:45:00,82.1,73.0,29.70,SE,135,2.7,9.4,74,0.00,,,0.00,WUHU216HW,2013-05-18 23:45:00,
2013-05-18 18:50:00,83.2,73.2,29.69,East,90,6.3,9.8,72,0.00,,,0.00,WUHU216HW,2013-05-18 23:50:00,
2013-05-18 18:55:00,83.7,73.3,29.69,SSE,158,6.9,9.8,71,0.00,,,0.00,WUHU216HW,2013-05-18 23:55:00,
2013-05-18 19:00:00,83.5,73.1,29.69,SE,135,7.2,8.5,71,0.00,,,0.00,WUHU216HW,2013-05-19 00:00:00,
2013-05-18 19:05:00,83.3,72.9,29.69,SE,135,2.5,7.2,71,0.00,,,0.00,WUHU216HW,2013-05-19 00:05:00,
2013-05-18 19:10:00,82.3,72.7,29.69,SSE,158,3.6,9.8,73,0.00,,,0.00,WUHU216HW,2013-05-19 00:10:00,
2013-05-18 19:15:00,82.1,73.0,29.69,SSE,158,7.2,9.8,74,0.00,,,0.00,WUHU216HW,2013-05-19 00:15:00,
2013-05-18 19:20:00,81.4,72.3,29.68,SSE,158,6.3,7.8,74,0.00,,,0.00,WUHU216HW,2013-05-19 00:20:00,
2013-05-18 19:25:00,80.5,71.8,29.68,SE,135,8.3,8.3,75,0.00,,,0.00,WUHU216HW,2013-05-19 00:25:00,
2013-05-18 19:30:00,80.1,71.8,29.68,SE,135,7.8,8.3,76,0.00,,,0.00,WUHU216HW,2013-05-19 00:30:00,
2013-05-18 19:35:00,79.9,72.1,29.69,SSE,158,6.9,8.3,77,0.00,,,0.00,WUHU216HW,2013-05-19 00:35:00,
2013-05-18 19:40:00,79.6,72.1,29.68,SE,135,4.7,7.8,78,0.00,,,0.00,WUHU216HW,2013-05-19 00:40:00,
2013-05-18 19:45:00,79.2,71.7,29.67,SE,135,6.3,6.9,78,0.00,,,0.00,WUHU216HW,2013-05-19 00:45:00,
2013-05-18 19:50:00,78.8,71.8,29.68,ESE,113,3.6,8.7,79,0.00,,,0.00,WUHU216HW,2013-05-19 00:50:00,
2013-05-18 19:55:00,78.7,71.7,29.69,SE,135,4.5,8.7,79,0.00,,,0.00,WUHU216HW,2013-05-19 00:55:00,
2013-05-18 20:00:00,78.5,71.8,29.69,SE,135,4.0,7.4,80,0.00,,,0.00,WUHU216HW,2013-05-19 01:00:00,
2013-05-18 20:05:00,78.1,71.8,29.69,South,180,3.1,4.9,81,0.00,,,0.00,WUHU216HW,2013-05-19 01:05:00,
2013-05-18 20:10:00,78.1,71.8,29.70,East,90,3.4,4.9,81,0.00,,,0.00,WUHU216HW,2013-05-19 01:10:00,
2013-05-18 20:15:00,77.8,71.5,29.70,ESE,113,4.0,4.0,81,0.00,,,0.00,WUHU216HW,2013-05-19 01:15:00,
2013-05-18 20:20:00,77.6,71.3,29.70,SE,135,3.6,5.1,81,0.00,,,0.00,WUHU216HW,2013-05-19 01:20:00,
2013-05-18 20:25:00,77.4,71.5,29.70,SSE,158,2.5,5.1,82,0.00,,,0.00,WUHU216HW,2013-05-19 01:25:00,
2013-05-18 20:30:00,77.4,71.5,29.69,SSE,158,2.5,3.8,82,0.00,,,0.00,WUHU216HW,2013-05-19 01:30:00,
2013-05-18 20:35:00,77.6,72.0,29.69,SE,135,3.6,3.8,83,0.00,,,0.00,WUHU216HW,2013-05-19 01:35:00,
2013-05-18 20:40:00,77.6,71.6,29.68,SSE,158,2.5,3.6,82,0.00,,,0.00,WUHU216HW,2013-05-19 01:40:00,
2013-05-18 20:45:00,77.4,71.8,29.68,SE,135,2.2,3.6,83,0.00,,,0.00,WUHU216HW,2013-05-19 01:45:00,
2013-05-18 20:50:00,77.2,71.3,29.68,SE,135,4.0,4.0,82,0.00,,,0.00,WUHU216HW,2013-05-19 01:50:00,
2013-05-18 20:55:00,77.0,71.5,29.68,ESE,113,2.0,4.0,83,0.00,,,0.00,WUHU216HW,2013-05-19 01:55:00,
2013-05-18 21:00:00,77.0,71.5,29.69,SE,135,3.4,4.0,83,0.00,,,0.00,WUHU216HW,2013-05-19 02:00:00,
2013-05-18 21:05:00,76.9,71.3,29.69,SE,135,4.5,6.9,83,0.00,,,0.00,WUHU216HW,2013-05-19 02:05:00,
2013-05-18 21:10:00,76.7,71.1,29.68,SE,135,2.7,6.9,83,0.00,,,0.00,WUHU216HW,2013-05-19 02:10:00,
2013-05-18 21:15:00,76.7,71.1,29.68,SE,135,1.8,4.5,83,0.00,,,0.00,WUHU216HW,2013-05-19 02:15:00,
2013-05-18 21:20:00,76.5,70.9,29.69,SSE,158,2.5,4.7,83,0.00,,,0.00,WUHU216HW,2013-05-19 02:20:00,
2013-05-18 21:25:00,76.5,71.3,29.69,SE,135,3.4,4.7,84,0.00,,,0.00,WUHU216HW,2013-05-19 02:25:00,
2013-05-18 21:30:00,76.3,71.1,29.69,SSW,203,3.4,4.9,84,0.00,,,0.00,WUHU216HW,2013-05-19 02:30:00,
2013-05-18 21:35:00,76.3,71.1,29.69,SE,135,2.2,4.9,84,0.00,,,0.00,WUHU216HW,2013-05-19 02:35:00,
2013-05-18 21:40:00,76.1,71.0,29.69,SSE,158,2.7,4.0,84,0.00,,,0.00,WUHU216HW,2013-05-19 02:40:00,
2013-05-18 21:45:00,76.0,71.2,29.69,SE,135,4.0,4.5,85,0.00,,,0.00,WUHU216HW,2013-05-19 02:45:00,
2013-05-18 21:50:00,76.0,71.2,29.69,NE,45,4.7,4.7,85,0.00,,,0.00,WUHU216HW,2013-05-19 02:50:00,
2013-05-18 21:55:00,76.0,71.2,29.69,SSE,158,4.9,8.5,85,0.00,,,0.00,WUHU216HW,2013-05-19 02:55:00,
2013-05-18 22:00:00,76.0,71.2,29.69,SE,135,4.3,8.7,85,0.00,,,0.00,WUHU216HW,2013-05-19 03:00:00,
2013-05-18 22:05:00,75.8,71.0,29.69,South,180,5.6,8.7,85,0.00,,,0.00,WUHU216HW,2013-05-19 03:05:00,
2013-05-18 22:10:00,75.6,70.8,29.69,SSE,158,7.4,7.4,85,0.00,,,0.00,WUHU216HW,2013-05-19 03:10:00,
2013-05-18 22:15:00,75.6,70.8,29.69,ESE,113,5.6,7.4,85,0.00,,,0.00,WUHU216HW,2013-05-19 03:15:00,
2013-05-18 22:20:00,75.6,70.8,29.69,South,180,5.1,7.6,85,0.00,,,0.00,WUHU216HW,2013-05-19 03:20:00,
2013-05-18 22:25:00,75.6,70.8,29.69,SE,135,4.9,9.2,85,0.00,,,0.00,WUHU216HW,2013-05-19 03:25:00,
2013-05-18 22:30:00,75.6,70.8,29.69,SSE,158,7.2,9.2,85,0.00,,,0.00,WUHU216HW,2013-05-19 03:30:00,
2013-05-18 22:35:00,75.6,71.2,29.70,SSE,158,4.3,7.2,86,0.00,,,0.00,WUHU216HW,2013-05-19 03:35:00,
2013-05-18 22:40:00,75.4,71.0,29.71,South,180,5.1,7.2,86,0.00,,,0.00,WUHU216HW,2013-05-19 03:40:00,
2013-05-18 22:45:00,75.2,70.8,29.71,SSE,158,3.4,5.8,86,0.00,,,0.00,WUHU216HW,2013-05-19 03:45:00,
2013-05-18 22:50:00,75.2,71.2,29.72,SSE,158,8.3,8.3,87,0.00,,,0.00,WUHU216HW,2013-05-19 03:50:00,
2013-05-18 22:55:00,75.4,71.0,29.72,SSE,158,4.0,8.3,86,0.00,,,0.00,WUHU216HW,2013-05-19 03:55:00,
2013-05-18 23:00:00,75.6,71.2,29.73,SSE,158,3.4,8.3,86,0.00,,,0.00,WUHU216HW,2013-05-19 04:00:00,
2013-05-18 23:01:00,75.6,71.2,29.73,SSE,158,3.4,8.3,86,0.00,,,0.00,WUHU216HW,2013-05-19 04:01:00,
2013-05-18 23:06:00,75.6,71.2,29.73,South,180,8.5,8.5,86,0.00,,,0.00,WUHU216HW,2013-05-19 04:06:00,
2013-05-18 23:11:00,75.6,71.2,29.73,South,180,4.7,8.5,86,0.00,,,0.00,WUHU216HW,2013-05-19 04:11:00,
2013-05-18 23:16:00,75.8,71.6,29.73,South,180,5.4,8.5,87,0.00,,,0.00,WUHU216HW,2013-05-19 04:16:00,
2013-05-18 23:21:00,75.8,71.6,29.73,South,180,2.7,5.4,87,0.00,,,0.00,WUHU216HW,2013-05-19 04:21:00,
2013-05-18 23:26:00,75.8,71.6,29.73,SSE,158,4.3,6.9,87,0.00,,,0.00,WUHU216HW,2013-05-19 04:26:00,
2013-05-18 23:31:00,75.8,71.6,29.73,SW,225,6.9,7.6,87,0.00,,,0.00,WUHU216HW,2013-05-19 04:31:00,
2013-05-18 23:36:00,76.0,71.8,29.74,SW,225,4.0,8.5,87,0.00,,,0.00,WUHU216HW,2013-05-19 04:36:00,
2013-05-18 23:41:00,76.0,71.8,29.75,SW,225,5.1,8.5,87,0.00,,,0.00,WUHU216HW,2013-05-19 04:41:00,
2013-05-18 23:46:00,76.0,71.8,29.75,SW,225,4.7,8.1,87,0.00,,,0.00,WUHU216HW,2013-05-19 04:46:00,
2013-05-18 23:51:00,76.1,71.6,29.75,SW,225,4.0,7.6,86,0.00,,,0.00,WUHU216HW,2013-05-19 04:51:00,
2013-05-18 23:56:00,76.1,72.0,29.79,NW,315,9.8,9.8,87,0.00,,,0.00,WUHU216HW,2013-05-19 04:56:00,